createdAt,value
2019-04-24T00:06:07.783Z,12.54
2019-04-24T00:08:30.261Z,12.51
2019-04-24T00:13:50.978Z,12.60
2019-04-24T00:16:15.524Z,12.68
2019-04-24T00:19:10.937Z,12.71
2019-04-24T00:21:50.531Z,12.69
2019-04-24T00:36:54.629Z,12.83
2019-04-24T00:39:20.567Z,12.89
2019-04-24T00:41:58.659Z,13.03
2019-04-24T00:44:26.606Z,13.14
2019-04-24T00:47:00.871Z,13.23
2019-04-24T00:49:27.482Z,13.31
2019-04-24T00:52:06.879Z,13.37
2019-04-24T00:57:00.503Z,13.37
2019-04-24T00:59:28.098Z,13.23
2019-04-24T01:05:30.133Z,12.83
2019-04-24T01:10:45.459Z,12.68
2019-04-24T01:16:00.746Z,12.46
2019-04-24T01:18:21.792Z,12.35
2019-04-24T01:21:05.149Z,12.23
2019-04-24T01:26:01.400Z,11.93
2019-04-24T01:28:37.179Z,11.83
2019-04-24T01:31:13.470Z,11.82
2019-04-24T01:33:48.316Z,11.87
2019-04-24T01:36:32.589Z,11.76
2019-04-24T01:39:25.956Z,12.01
2019-04-24T01:41:48.721Z,12.05
2019-04-24T01:49:31.086Z,12.27
2019-04-24T01:52:14.668Z,12.32
2019-04-24T01:56:59.897Z,12.53
2019-04-24T01:59:35.017Z,12.53
2019-04-24T02:02:08.233Z,12.53
2019-04-24T02:04:33.987Z,12.56
2019-04-24T02:07:32.654Z,12.68
2019-04-24T02:15:28.859Z,12.63
2019-04-24T02:18:02.026Z,12.64
2019-04-24T02:23:06.523Z,12.67
2019-04-24T02:30:58.140Z,12.73
2019-04-24T02:36:31.764Z,12.68
2019-04-24T02:41:41.417Z,12.70
2019-04-24T02:44:09.269Z,12.67
2019-04-24T02:46:27.146Z,12.71
2019-04-24T02:49:23.182Z,12.74
2019-04-24T02:51:26.710Z,12.74
2019-04-24T02:54:12.209Z,12.77
2019-04-24T02:56:36.143Z,12.78
2019-04-24T03:01:39.796Z,12.76
2019-04-24T03:04:28.669Z,12.75
2019-04-24T03:12:22.955Z,12.62
2019-04-24T03:14:29.065Z,12.64
2019-04-24T03:19:45.925Z,12.67
2019-04-24T03:22:15.283Z,12.61
2019-04-24T03:27:40.348Z,12.57
2019-04-24T03:45:27.247Z,12.25
2019-04-24T03:51:12.585Z,12.17
2019-04-24T03:53:13.241Z,12.15
2019-04-24T03:55:51.627Z,12.16
2019-04-24T03:58:23.256Z,12.11
2019-04-24T04:06:05.420Z,12.17
2019-04-24T04:08:44.794Z,12.22
2019-04-24T04:11:01.085Z,12.24
2019-04-24T04:16:08.504Z,12.19
2019-04-24T04:18:41.965Z,12.17
2019-04-24T04:21:11.436Z,12.22
2019-04-24T04:23:58.452Z,12.28
2019-04-24T04:26:42.763Z,12.28
2019-04-24T04:32:24.096Z,12.39
2019-04-24T04:35:02.487Z,12.49
2019-04-24T04:37:28.253Z,12.60
2019-04-24T04:40:37.778Z,12.66
2019-04-24T04:43:01.201Z,12.70
2019-04-24T04:48:25.354Z,12.62
2019-04-24T04:56:26.582Z,12.77
2019-04-24T05:01:56.763Z,14.77
2019-04-24T05:07:22.646Z,18.94
2019-04-24T05:17:08.601Z,22.73
2019-04-24T05:22:08.451Z,23.90
2019-04-24T05:24:47.697Z,23.74
2019-04-24T05:27:31.377Z,23.48
2019-04-24T05:35:29.947Z,25.18
2019-04-24T05:38:19.349Z,25.66
2019-04-24T05:40:50.888Z,25.80
2019-04-24T05:46:08.864Z,25.73
2019-04-24T05:48:46.897Z,26.18
2019-04-24T05:51:19.745Z,26.44
2019-04-24T05:54:21.063Z,26.36
2019-04-24T05:57:17.631Z,26.78
2019-04-24T05:59:38.748Z,26.78
2019-04-24T06:04:46.341Z,27.29
2019-04-24T06:07:52.520Z,27.22
2019-04-24T06:24:03.226Z,28.15
2019-04-24T06:34:21.961Z,24.66
2019-04-24T06:39:58.282Z,23.24
2019-04-24T06:42:45.828Z,22.73
2019-04-24T06:50:28.087Z,23.16
2019-04-24T06:55:03.391Z,23.19
2019-04-24T06:57:52.341Z,23.16
2019-04-24T07:03:35.413Z,23.58
2019-04-24T07:06:10.415Z,23.27
2019-04-24T07:09:06.514Z,23.41
2019-04-24T07:11:42.002Z,23.40
2019-04-24T07:14:11.837Z,23.52
2019-04-24T07:17:18.814Z,23.20
2019-04-24T07:24:56.255Z,23.35
2019-04-24T07:27:05.155Z,23.58
2019-04-24T07:29:49.139Z,24.47
2019-04-24T07:37:58.883Z,25.37
2019-04-24T07:40:13.603Z,25.78
2019-04-24T07:43:11.692Z,25.61
2019-04-24T07:45:38.075Z,25.33
2019-04-24T07:47:55.024Z,25.52
2019-04-24T07:51:00.948Z,25.55
2019-04-24T07:53:53.430Z,25.87
2019-04-24T07:56:20.745Z,25.83
2019-04-24T07:59:05.529Z,25.57
2019-04-24T08:01:29.750Z,25.85
2019-04-24T08:03:58.957Z,25.71
2019-04-24T08:09:00.668Z,24.67
2019-04-24T08:11:42.420Z,24.80
2019-04-24T08:14:01.182Z,24.95
2019-04-24T08:16:39.580Z,24.71
2019-04-24T08:19:40.133Z,24.60
2019-04-24T08:21:58.867Z,24.45
2019-04-24T08:24:48.565Z,24.21
2019-04-24T08:26:59.952Z,24.32
2019-04-24T08:29:31.797Z,24.28
2019-04-24T08:45:39.709Z,23.48
2019-04-24T08:48:11.145Z,23.48
2019-04-24T08:51:07.510Z,23.36
2019-04-24T09:01:03.304Z,23.56
2019-04-24T09:03:47.968Z,23.59
2019-04-24T09:06:03.895Z,23.47
2019-04-24T09:11:39.963Z,23.67
2019-04-24T09:16:45.097Z,24.15
2019-04-24T09:19:16.921Z,24.29
2019-04-24T09:21:42.776Z,24.39
2019-04-24T09:28:10.229Z,24.67
2019-04-24T09:30:19.987Z,24.73
2019-04-24T09:36:03.840Z,24.76
2019-04-24T09:41:39.907Z,25.39
2019-04-24T09:46:19.702Z,25.71
2019-04-24T09:51:23.264Z,26.17
2019-04-24T10:05:00.882Z,25.65
2019-04-24T10:07:35.627Z,25.28
2019-04-24T10:10:06.652Z,25.48
2019-04-24T10:12:48.062Z,25.62
2019-04-24T10:15:05.896Z,25.87
2019-04-24T10:17:50.510Z,26.16
2019-04-24T10:23:29.303Z,26.33
2019-04-24T10:25:52.366Z,26.25
2019-04-24T10:28:42.581Z,26.10
2019-04-24T10:31:19.244Z,26.06
2019-04-24T10:45:28.398Z,26.87
2019-04-24T10:51:43.108Z,27.45
2019-04-24T10:53:45.995Z,27.87
2019-04-24T10:58:53.502Z,29.32
2019-04-24T11:02:05.107Z,30.07
2019-04-24T11:04:27.220Z,30.10
2019-04-24T11:16:18.660Z,30.48
2019-04-24T11:19:05.983Z,30.48
2019-04-24T11:21:50.558Z,30.33
2019-04-24T11:24:17.209Z,30.45
2019-04-24T11:26:38.000Z,31.11
2019-04-24T11:29:36.051Z,31.94
2019-04-24T11:32:21.314Z,31.48
2019-04-24T11:37:28.084Z,31.13
2019-04-24T11:42:49.108Z,32.15
2019-04-24T11:45:38.565Z,31.64
2019-04-24T11:48:40.139Z,31.42
2019-04-24T11:53:23.921Z,31.19
2019-04-24T11:56:20.360Z,32.58
2019-04-24T12:01:55.333Z,32.39
2019-04-24T12:04:47.495Z,32.53
2019-04-24T12:07:24.406Z,32.70
2019-04-24T12:09:56.149Z,31.32
2019-04-24T12:12:16.747Z,32.05
2019-04-24T12:15:03.682Z,32.68
2019-04-24T12:18:11.949Z,32.65
2019-04-24T12:23:26.279Z,32.39
2019-04-24T12:26:02.725Z,32.68
2019-04-24T12:30:55.489Z,33.00
2019-04-24T12:36:26.744Z,33.00
2019-04-24T12:38:52.071Z,33.72
2019-04-24T12:41:32.629Z,34.03
2019-04-24T12:44:18.378Z,34.16
2019-04-24T12:47:03.122Z,33.78
2019-04-24T12:49:33.151Z,33.73
2019-04-24T12:54:33.313Z,34.60
2019-04-24T12:57:26.369Z,34.34
2019-04-24T12:59:55.662Z,33.94
2019-04-24T13:03:05.290Z,34.08
2019-04-24T13:05:41.145Z,34.16
2019-04-24T13:08:19.275Z,33.53
2019-04-24T13:13:40.992Z,33.59
2019-04-24T13:16:13.726Z,33.91
2019-04-24T13:19:09.268Z,32.81
2019-04-24T13:21:04.689Z,32.63
2019-04-24T13:23:48.035Z,32.05
2019-04-24T13:26:40.496Z,31.20
2019-04-24T13:31:56.194Z,29.53
2019-04-24T13:34:29.432Z,28.94
2019-04-24T13:37:02.815Z,28.03
2019-04-24T13:39:34.538Z,27.40
2019-04-24T13:42:01.826Z,27.13
2019-04-24T13:44:28.096Z,26.78
2019-04-24T13:47:04.755Z,26.51
2019-04-24T13:49:30.312Z,26.29
2019-04-24T13:54:32.113Z,25.88
2019-04-24T13:59:44.355Z,25.57
2019-04-24T14:02:20.011Z,25.41
2019-04-24T14:04:39.116Z,25.26
2019-04-24T14:07:15.647Z,25.15
2019-04-24T14:10:23.811Z,25.13
2019-04-24T14:15:01.837Z,24.88
2019-04-24T14:17:19.338Z,24.85
2019-04-24T14:20:37.765Z,24.78
2019-04-24T14:22:58.406Z,24.75
2019-04-24T14:28:10.836Z,24.74
2019-04-24T14:30:19.118Z,24.75
2019-04-24T14:33:07.359Z,24.67
2019-04-24T14:38:02.832Z,24.46
2019-04-24T14:40:29.599Z,24.42
2019-04-24T14:43:07.353Z,24.28
2019-04-24T14:45:58.663Z,24.31
2019-04-24T14:48:16.714Z,24.24
2019-04-24T14:50:47.703Z,24.11
2019-04-24T14:53:19.782Z,24.09
2019-04-24T14:55:53.637Z,24.07
2019-04-24T14:58:19.197Z,24.00
2019-04-24T15:00:55.821Z,23.98
2019-04-24T15:03:21.023Z,23.93
2019-04-24T15:08:36.776Z,23.83
2019-04-24T15:21:16.471Z,23.64
2019-04-24T15:24:14.389Z,23.55
2019-04-24T15:26:33.234Z,23.55
2019-04-24T15:29:00.525Z,23.53
2019-04-24T15:31:13.996Z,23.47
2019-04-24T15:34:00.928Z,23.44
2019-04-24T15:36:22.411Z,23.37
2019-04-24T15:39:02.849Z,23.35
2019-04-24T15:41:38.104Z,23.32
2019-04-24T15:43:53.509Z,23.28
2019-04-24T15:46:25.605Z,23.19
2019-04-24T15:49:04.167Z,23.11
2019-04-24T15:51:30.604Z,23.05
2019-04-24T15:53:34.984Z,23.03
2019-04-24T15:56:04.689Z,23.02
2019-04-24T15:58:44.465Z,22.93
2019-04-24T16:01:37.081Z,22.86
2019-04-24T16:04:10.090Z,22.80
2019-04-24T16:06:26.602Z,22.70
2019-04-24T16:08:59.689Z,22.60
2019-04-24T16:11:29.279Z,22.52
2019-04-24T16:14:10.286Z,22.45
2019-04-24T16:17:08.036Z,22.34
2019-04-24T16:22:05.096Z,22.17
2019-04-24T16:27:09.706Z,21.97
2019-04-24T16:29:36.314Z,21.88
2019-04-24T16:34:41.130Z,21.63
2019-04-24T16:37:17.169Z,21.50
2019-04-24T16:40:27.698Z,21.49
2019-04-24T16:43:08.655Z,21.41
2019-04-24T16:45:10.085Z,21.26
2019-04-24T16:52:54.815Z,21.03
2019-04-24T16:55:19.707Z,20.91
2019-04-24T17:05:29.642Z,20.52
2019-04-24T17:08:09.287Z,20.41
2019-04-24T17:21:10.176Z,19.99
2019-04-24T17:23:18.074Z,19.94
2019-04-24T17:28:29.630Z,19.84
2019-04-24T17:31:02.578Z,19.84
2019-04-24T17:36:07.929Z,19.75
2019-04-24T17:38:40.402Z,19.75
2019-04-24T17:41:15.398Z,19.69
2019-04-24T17:46:41.096Z,19.58
2019-04-24T17:49:19.169Z,19.58
2019-04-24T17:52:09.253Z,19.52
2019-04-24T17:54:19.558Z,19.54
2019-04-24T17:58:49.398Z,19.48
2019-04-24T18:01:19.187Z,19.40
2019-04-24T18:03:50.253Z,19.41
2019-04-24T18:06:21.658Z,19.40
2019-04-24T18:08:52.579Z,19.34
2019-04-24T18:11:22.425Z,19.32
2019-04-24T18:13:52.259Z,19.33
2019-04-24T18:16:22.263Z,19.24
2019-04-24T18:18:52.081Z,19.20
2019-04-24T18:21:21.794Z,19.19
2019-04-24T18:23:52.210Z,19.17
2019-04-24T18:26:36.949Z,19.16
2019-04-24T18:29:07.061Z,19.07
2019-04-24T18:31:36.932Z,18.94
2019-04-24T18:34:06.543Z,18.85
2019-04-24T18:36:36.219Z,18.76
2019-04-24T18:39:08.123Z,18.63
2019-04-24T18:41:37.781Z,18.57
2019-04-24T18:44:08.307Z,18.51
2019-04-24T18:46:38.101Z,18.48
2019-04-24T18:49:08.556Z,18.45
2019-04-24T18:51:38.436Z,18.39
2019-04-24T18:54:08.995Z,18.25
2019-04-24T18:56:39.364Z,18.21
2019-04-24T18:59:09.354Z,18.17
2019-04-24T19:01:39.474Z,18.14
2019-04-24T19:04:11.908Z,18.10
2019-04-24T19:06:41.965Z,18.03
2019-04-24T19:09:12.816Z,17.99
2019-04-24T19:11:43.454Z,17.87
2019-04-24T19:14:13.234Z,17.82
2019-04-24T19:16:42.856Z,17.83
2019-04-24T19:19:12.941Z,17.83
2019-04-24T19:21:42.637Z,17.78
2019-04-24T19:24:12.499Z,17.77
2019-04-24T19:26:42.188Z,17.69
2019-04-24T19:29:11.825Z,17.67
2019-04-24T19:31:42.391Z,17.67
2019-04-24T19:34:13.596Z,17.65
2019-04-24T19:36:43.259Z,17.62
2019-04-24T19:39:13.488Z,17.56
2019-04-24T19:41:43.780Z,17.48
2019-04-24T19:44:14.388Z,17.42
2019-04-24T19:46:44.294Z,17.38
2019-04-24T19:49:14.510Z,17.35
2019-04-24T19:51:44.203Z,17.31
2019-04-24T19:54:14.683Z,17.28
2019-04-24T19:56:44.762Z,17.20
2019-04-24T19:59:14.693Z,17.10
2019-04-24T20:01:44.394Z,17.03
2019-04-24T20:04:14.386Z,16.88
2019-04-24T20:06:44.248Z,16.79
2019-04-24T20:09:41.848Z,16.73
2019-04-24T20:12:12.941Z,16.69
2019-04-24T20:14:42.839Z,16.58
2019-04-24T20:17:13.355Z,16.48
2019-04-24T20:19:43.178Z,16.40
2019-04-24T20:22:13.757Z,16.34
2019-04-24T20:24:43.424Z,16.31
2019-04-24T20:27:13.206Z,16.26
2019-04-24T20:29:43.759Z,16.24
2019-04-24T20:32:14.035Z,16.16
2019-04-24T20:34:44.477Z,16.12
2019-04-24T20:37:14.899Z,16.12
2019-04-24T20:39:44.505Z,16.10
2019-04-24T20:42:14.111Z,16.07
2019-04-24T20:44:43.762Z,16.13
2019-04-24T20:47:13.345Z,16.13
2019-04-24T20:49:43.096Z,16.11
2019-04-24T20:52:12.745Z,16.05
2019-04-24T20:54:42.494Z,15.88
2019-04-24T20:57:13.661Z,15.72
2019-04-24T20:59:43.306Z,15.58
2019-04-24T21:02:12.989Z,15.41
2019-04-24T21:04:42.561Z,15.29
2019-04-24T21:07:26.217Z,15.16
2019-04-24T21:10:02.052Z,15.10
2019-04-24T21:12:31.744Z,14.95
2019-04-24T21:15:17.192Z,14.86
2019-04-24T21:17:46.811Z,14.79
2019-04-24T21:20:16.564Z,14.70
2019-04-24T21:22:46.127Z,14.65
2019-04-24T21:25:15.658Z,14.62
2019-04-24T21:27:45.299Z,14.57
2019-04-24T21:30:15.092Z,14.51
2019-04-24T21:32:44.688Z,14.46
2019-04-24T21:35:14.417Z,14.47
2019-04-24T21:37:44.189Z,14.48
2019-04-24T21:40:13.760Z,14.46
2019-04-24T21:42:43.444Z,14.41
2019-04-24T21:45:13.182Z,14.34
2019-04-24T21:47:42.966Z,14.26
2019-04-24T21:50:12.747Z,14.22
2019-04-24T21:52:42.481Z,14.16
2019-04-24T21:55:12.217Z,14.09
2019-04-24T21:57:59.881Z,14.06
2019-04-24T22:00:58.317Z,14.04
2019-04-24T22:03:45.833Z,13.99
2019-04-24T22:06:15.962Z,13.90
2019-04-24T22:08:45.506Z,13.86
2019-04-24T22:11:15.650Z,13.84
2019-04-24T22:13:45.390Z,13.80
2019-04-24T22:16:15.025Z,13.75
2019-04-24T22:18:44.722Z,13.73
2019-04-24T22:21:17.851Z,13.63
2019-04-24T22:23:59.495Z,13.64
2019-04-24T22:26:32.025Z,13.60
2019-04-24T22:29:02.013Z,13.58
2019-04-24T22:31:47.041Z,13.54
2019-04-24T22:34:29.415Z,13.49
2019-04-24T22:36:59.075Z,13.44
2019-04-24T22:39:46.183Z,13.38
2019-04-24T22:42:16.032Z,13.37
2019-04-24T22:44:45.764Z,13.29
2019-04-24T22:47:15.455Z,13.29
2019-04-24T22:49:45.224Z,13.26
2019-04-24T22:52:14.952Z,13.23
2019-04-24T22:54:44.722Z,13.20
2019-04-24T22:57:14.400Z,13.16
2019-04-24T22:59:44.274Z,13.13
2019-04-24T23:02:14.035Z,13.15
2019-04-24T23:04:43.771Z,13.11
2019-04-24T23:07:13.450Z,13.05
2019-04-24T23:09:44.339Z,13.05
2019-04-24T23:12:13.929Z,12.96
2019-04-24T23:14:43.559Z,12.92
2019-04-24T23:17:13.276Z,12.93
2019-04-24T23:19:43.160Z,12.91
2019-04-24T23:22:32.968Z,12.83
2019-04-24T23:25:12.312Z,12.77
2019-04-24T23:27:59.429Z,12.74
2019-04-24T23:30:43.472Z,12.74
2019-04-24T23:33:24.270Z,12.67
2019-04-24T23:35:53.942Z,12.64
2019-04-24T23:38:23.593Z,12.56
2019-04-24T23:40:53.167Z,12.58
2019-04-24T23:43:22.905Z,12.55
2019-04-24T23:45:53.690Z,12.51
2019-04-24T23:48:23.394Z,12.47
2019-04-24T23:50:53.161Z,12.47
2019-04-24T23:53:22.781Z,12.46
2019-04-24T23:55:52.327Z,12.44
2019-04-24T23:58:21.926Z,12.42
